Time;durP1;ratioP1;P1;durP2;ratioP2;P2;SDS_P1;SDS_P2;PMS_P1;PMS_P2;Temp;Humidity;BMP_temperature;BMP_pressure;BME280_temperature;BME280_humidity;BME280_pressure;Samples;Min_cycle;Max_cycle;Signal;HPM_P1;HPM_P2
2023/05/31 00:01:53;;;;;;;1.20;1.10;;;22.70;60.50;;;;;;5060427;28;20208;-45
2023/05/31 00:04:26;;;;;;;0.97;0.97;;;22.70;60.50;;;;;;5058832;28;20675;-45
2023/05/31 00:06:56;;;;;;;1.57;1.30;;;22.70;60.20;;;;;;5056994;28;20686;-45
2023/05/31 00:09:24;;;;;;;1.30;1.07;;;22.70;60.20;;;;;;5067697;28;20205;-45
2023/05/31 00:11:54;;;;;;;1.60;1.40;;;22.70;60.10;;;;;;5051952;28;20249;-44
2023/05/31 00:14:23;;;;;;;0.90;0.90;;;22.70;59.90;;;;;;5061091;28;20194;-44
2023/05/31 00:16:53;;;;;;;1.20;1.10;;;22.70;59.80;;;;;;5041875;28;20216;-45
2023/05/31 00:19:43;;;;;;;1.00;1.00;;;22.60;59.60;;;;;;5020241;28;20345;-44
2023/05/31 00:22:17;;;;;;;1.53;1.07;;;22.60;59.50;;;;;;5003994;28;20725;-45
2023/05/31 00:24:48;;;;;;;1.30;1.00;;;22.60;59.30;;;;;;5019873;28;20796;-44
2023/05/31 00:27:20;;;;;;;0.90;0.90;;;22.60;59.30;;;;;;5017692;28;20234;-45
2023/05/31 00:29:52;;;;;;;1.10;0.90;;;22.60;59.10;;;;;;5024035;28;20265;-45
2023/05/31 00:32:22;;;;;;;1.00;1.00;;;22.60;59.00;;;;;;5024802;28;20231;-44
2023/05/31 00:34:51;;;;;;;1.10;1.00;;;22.60;58.80;;;;;;5019565;28;20203;-44
2023/05/31 00:37:22;;;;;;;0.97;0.97;;;22.50;58.70;;;;;;5034162;28;20574;-44
2023/05/31 00:39:53;;;;;;;1.30;1.20;;;22.50;58.60;;;;;;5060982;28;20233;-44
2023/05/31 00:42:23;;;;;;;1.77;1.20;;;22.50;58.40;;;;;;5047016;28;20520;-45
2023/05/31 00:44:53;;;;;;;1.20;1.20;;;22.50;58.40;;;;;;5063408;28;20531;-45
2023/05/31 00:47:25;;;;;;;1.67;0.90;;;22.50;58.40;;;;;;5048264;28;20260;-44
2023/05/31 00:49:59;;;;;;;1.40;1.20;;;22.50;58.20;;;;;;5050147;28;20602;-44
2023/05/31 00:52:31;;;;;;;1.10;1.00;;;22.50;58.10;;;;;;5054648;28;20547;-44
2023/05/31 00:55:02;;;;;;;1.27;1.17;;;22.50;57.80;;;;;;5050383;28;20263;-44
2023/05/31 00:57:32;;;;;;;1.03;0.93;;;22.50;57.70;;;;;;5058420;28;20248;-44
2023/05/31 01:00:00;;;;;;;1.10;1.00;;;22.50;57.60;;;;;;5062300;28;20681;-44
2023/05/31 01:02:32;;;;;;;1.07;0.97;;;22.50;57.40;;;;;;5049385;28;20831;-44
2023/05/31 01:05:10;;;;;;;1.67;1.27;;;22.50;57.30;;;;;;5042808;28;20224;-44
2023/05/31 01:07:38;;;;;;;1.13;1.07;;;22.40;57.30;;;;;;5068732;28;20198;-44
2023/05/31 01:10:10;;;;;;;1.60;0.87;;;22.40;57.10;;;;;;5069159;28;20203;-44
2023/05/31 01:13:09;;;;;;;1.27;1.07;;;22.40;57.10;;;;;;5068149;28;20275;-45
2023/05/31 01:16:07;;;;;;;2.17;0.97;;;22.40;57.10;;;;;;5061638;28;20625;-44
2023/05/31 01:18:44;;;;;;;1.30;1.20;;;22.40;57.10;;;;;;5057882;28;20203;-45
2023/05/31 01:21:19;;;;;;;1.90;1.43;;;22.40;57.00;;;;;;5068590;28;20197;-46
2023/05/31 01:24:31;;;;;;;1.10;1.00;;;22.40;57.10;;;;;;5051090;28;20205;-46
2023/05/31 01:27:05;;;;;;;1.90;1.10;;;22.40;57.10;;;;;;5063281;28;20202;-44
2023/05/31 01:29:44;;;;;;;0.90;0.90;;;22.30;56.90;;;;;;5038291;28;20288;-44
2023/05/31 01:32:27;;;;;;;1.10;1.00;;;22.40;57.10;;;;;;5045942;28;20255;-45
2023/05/31 01:34:53;;;;;;;0.83;0.83;;;22.30;56.90;;;;;;5043839;28;20560;-45
2023/05/31 01:37:25;;;;;;;1.43;1.10;;;22.30;56.80;;;;;;5067761;28;20186;-45
2023/05/31 01:39:56;;;;;;;0.90;0.90;;;22.30;56.80;;;;;;5060239;28;20232;-45
2023/05/31 01:42:26;;;;;;;1.20;1.10;;;22.30;56.70;;;;;;5044870;28;20233;-45
2023/05/31 01:44:57;;;;;;;1.00;1.00;;;22.30;56.70;;;;;;5050484;28;20240;-45
2023/05/31 01:47:35;;;;;;;1.00;0.93;;;22.30;56.70;;;;;;5048081;28;20412;-44
2023/05/31 01:50:12;;;;;;;1.43;1.00;;;22.30;56.70;;;;;;5070846;28;20197;-45
2023/05/31 01:52:40;;;;;;;1.50;1.10;;;22.30;56.60;;;;;;5074664;28;20237;-45
2023/05/31 01:55:15;;;;;;;1.23;1.13;;;22.30;56.60;;;;;;5057145;28;20198;-45
2023/05/31 01:57:47;;;;;;;1.17;1.07;;;22.20;56.60;;;;;;5050074;28;20201;-44
2023/05/31 02:00:19;;;;;;;1.07;1.07;;;22.30;56.60;;;;;;5045150;28;20684;-44
2023/05/31 02:02:51;;;;;;;1.20;1.10;;;22.20;56.50;;;;;;5069373;28;20185;-44
2023/05/31 02:05:22;;;;;;;1.30;1.20;;;22.20;56.50;;;;;;5030065;28;20210;-44
2023/05/31 02:07:54;;;;;;;1.83;1.10;;;22.20;56.50;;;;;;5067852;28;20194;-44
2023/05/31 02:10:28;;;;;;;1.20;1.10;;;22.20;56.40;;;;;;5066694;28;20201;-44
2023/05/31 02:13:00;;;;;;;0.90;0.90;;;22.20;56.40;;;;;;5067125;28;20279;-44
2023/05/31 02:15:30;;;;;;;1.20;1.10;;;22.10;56.40;;;;;;5055953;28;20202;-44
2023/05/31 02:18:02;;;;;;;1.30;1.20;;;22.20;56.40;;;;;;5065378;28;20209;-45
2023/05/31 02:20:34;;;;;;;0.83;0.83;;;22.10;56.40;;;;;;5059396;28;20182;-45
2023/05/31 02:23:07;;;;;;;1.00;1.00;;;22.10;56.40;;;;;;5056814;28;20202;-45
2023/05/31 02:25:45;;;;;;;1.20;1.07;;;22.10;56.30;;;;;;5066522;28;20201;-44
2023/05/31 02:28:16;;;;;;;1.27;1.17;;;22.10;56.30;;;;;;5021138;28;20199;-44
2023/05/31 02:31:00;;;;;;;1.30;1.20;;;22.10;56.40;;;;;;5064084;28;20346;-46
2023/05/31 02:33:30;;;;;;;1.83;1.23;;;22.10;56.20;;;;;;5051770;28;20230;-45
2023/05/31 02:36:03;;;;;;;1.33;1.17;;;22.10;56.30;;;;;;5064369;28;20211;-44
2023/05/31 02:38:32;;;;;;;1.30;1.20;;;22.00;56.20;;;;;;5060846;28;20233;-44
2023/05/31 02:41:00;;;;;;;1.00;0.90;;;22.00;56.10;;;;;;5039344;28;20322;-45
2023/05/31 02:43:31;;;;;;;1.20;1.10;;;22.10;56.20;;;;;;5057729;28;20528;-44
2023/05/31 02:46:02;;;;;;;0.90;0.90;;;22.00;56.10;;;;;;5047805;28;20194;-44
2023/05/31 02:48:34;;;;;;;1.20;1.13;;;22.00;56.10;;;;;;5051689;28;20297;-44
2023/05/31 02:51:06;;;;;;;1.10;1.00;;;22.00;56.10;;;;;;5051178;28;20202;-45
2023/05/31 02:53:38;;;;;;;0.80;0.80;;;22.00;56.10;;;;;;5054436;28;20581;-44
2023/05/31 02:56:09;;;;;;;1.20;1.10;;;22.00;56.00;;;;;;5053378;28;20198;-44
2023/05/31 02:58:42;;;;;;;1.10;0.93;;;21.90;56.00;;;;;;5054142;28;20769;-45
2023/05/31 03:01:13;;;;;;;1.20;1.10;;;22.00;56.00;;;;;;5053268;28;20205;-44
2023/05/31 03:03:46;;;;;;;0.80;0.80;;;21.90;55.90;;;;;;5068265;28;20201;-44
2023/05/31 03:06:19;;;;;;;1.10;1.00;;;22.00;56.00;;;;;;5037692;28;20213;-45
2023/05/31 03:08:51;;;;;;;1.13;1.03;;;22.00;56.00;;;;;;5049219;28;20194;-44
2023/05/31 03:11:21;;;;;;;1.07;1.07;;;21.90;55.90;;;;;;5048921;28;20255;-44
2023/05/31 03:13:52;;;;;;;0.90;0.90;;;22.00;56.00;;;;;;5048824;28;20194;-44
2023/05/31 03:16:25;;;;;;;1.10;1.10;;;22.00;55.90;;;;;;5027139;28;20202;-45
2023/05/31 03:18:57;;;;;;;1.03;1.03;;;21.90;55.80;;;;;;5058820;28;20603;-45
2023/05/31 03:21:29;;;;;;;1.23;1.13;;;21.90;55.80;;;;;;5052665;28;20616;-45
2023/05/31 03:24:04;;;;;;;1.13;1.03;;;21.90;55.80;;;;;;5048052;28;20210;-45
2023/05/31 03:26:35;;;;;;;1.13;1.07;;;21.90;55.80;;;;;;5055862;28;20277;-45
2023/05/31 03:29:06;;;;;;;1.17;1.07;;;21.90;55.80;;;;;;5052699;28;20210;-45
2023/05/31 03:31:37;;;;;;;1.10;1.10;;;21.90;55.80;;;;;;5047605;28;20199;-44
2023/05/31 03:34:07;;;;;;;1.10;1.00;;;21.90;55.70;;;;;;5066103;28;20198;-44
2023/05/31 03:36:38;;;;;;;1.17;1.07;;;21.80;55.70;;;;;;5063752;28;20206;-45
2023/05/31 03:39:11;;;;;;;1.43;1.17;;;21.90;55.80;;;;;;5068042;28;20236;-45
2023/05/31 03:41:44;;;;;;;1.20;1.07;;;21.80;55.70;;;;;;5062289;28;20214;-44
2023/05/31 03:44:26;;;;;;;1.20;1.10;;;21.80;55.70;;;;;;5051858;28;20218;-44
2023/05/31 03:46:59;;;;;;;0.83;0.83;;;21.80;55.70;;;;;;5054284;28;20221;-44
2023/05/31 03:49:29;;;;;;;0.90;0.90;;;21.80;55.70;;;;;;5060095;28;20194;-44
2023/05/31 03:51:59;;;;;;;1.13;1.03;;;21.70;55.70;;;;;;5058768;28;20232;-45
2023/05/31 03:54:30;;;;;;;1.00;1.00;;;21.80;55.60;;;;;;5045482;28;20213;-44
2023/05/31 03:57:00;;;;;;;1.10;1.00;;;21.80;55.60;;;;;;5037111;28;20215;-44
2023/05/31 03:59:31;;;;;;;1.20;1.10;;;21.70;55.60;;;;;;5059094;28;20217;-43
2023/05/31 04:02:13;;;;;;;1.20;1.10;;;21.70;55.50;;;;;;5063240;28;20202;-44
2023/05/31 04:04:45;;;;;;;1.30;1.20;;;21.70;55.60;;;;;;5065906;28;20671;-44
2023/05/31 04:07:16;;;;;;;1.37;1.27;;;21.70;55.60;;;;;;5035593;28;20214;-44
2023/05/31 04:09:46;;;;;;;1.27;1.17;;;21.70;55.60;;;;;;5058901;28;20552;-44
2023/05/31 04:12:17;;;;;;;1.00;1.00;;;21.70;55.60;;;;;;5049590;28;20690;-45
2023/05/31 04:14:49;;;;;;;1.27;1.17;;;21.70;55.60;;;;;;5052626;28;20210;-45
2023/05/31 04:17:19;;;;;;;1.07;0.93;;;21.70;55.60;;;;;;5068307;28;20210;-44
2023/05/31 04:19:52;;;;;;;1.20;1.10;;;21.70;56.20;;;;;;5051163;28;20214;-45
2023/05/31 04:22:22;;;;;;;1.37;1.27;;;21.60;55.60;;;;;;5059606;28;20198;-43
2023/05/31 04:24:51;;;;;;;1.20;1.10;;;21.60;55.50;;;;;;5037716;28;20217;-44
2023/05/31 04:27:29;;;;;;;1.30;1.20;;;21.70;55.60;;;;;;5059339;28;20194;-44
2023/05/31 04:30:00;;;;;;;1.40;1.13;;;21.60;55.50;;;;;;5051623;28;20671;-43
2023/05/31 04:32:38;;;;;;;1.27;1.20;;;21.70;55.60;;;;;;5055122;28;20404;-44
2023/05/31 04:35:11;;;;;;;1.00;1.00;;;21.60;55.50;;;;;;5055257;28;20220;-43
2023/05/31 04:37:43;;;;;;;1.27;1.10;;;21.60;55.50;;;;;;5070703;28;20202;-45
2023/05/31 04:40:16;;;;;;;1.13;1.03;;;21.60;55.50;;;;;;5050447;28;20697;-44
2023/05/31 04:42:48;;;;;;;1.20;1.13;;;21.60;55.50;;;;;;5070299;28;20216;-44
2023/05/31 04:45:16;;;;;;;1.20;1.10;;;21.60;55.50;;;;;;5064886;28;20194;-44
2023/05/31 04:47:49;;;;;;;1.17;1.10;;;21.60;55.50;;;;;;5069153;28;20182;-44
2023/05/31 04:50:19;;;;;;;1.43;1.20;;;21.60;55.40;;;;;;5068443;28;20277;-44
2023/05/31 04:52:48;;;;;;;1.60;1.50;;;21.60;55.30;;;;;;5054257;28;20234;-43
2023/05/31 04:55:19;;;;;;;1.67;1.53;;;21.60;55.20;;;;;;5045321;28;20202;-44
2023/05/31 04:57:49;;;;;;;1.60;1.50;;;21.60;55.20;;;;;;5060495;28;20194;-43
2023/05/31 05:00:34;;;;;;;1.50;1.40;;;21.60;55.30;;;;;;5053667;28;20231;-44
2023/05/31 05:03:04;;;;;;;1.40;1.30;;;21.60;55.30;;;;;;5044853;28;20677;-44
2023/05/31 05:05:43;;;;;;;1.30;1.23;;;21.60;55.30;;;;;;5067146;28;20247;-43
2023/05/31 05:08:14;;;;;;;2.73;1.40;;;21.60;55.20;;;;;;5049826;28;20213;-43
2023/05/31 05:10:44;;;;;;;1.50;1.40;;;21.60;55.20;;;;;;5051778;28;20190;-44
2023/05/31 05:13:16;;;;;;;1.30;1.20;;;21.60;55.20;;;;;;5063931;28;20622;-44
2023/05/31 05:15:48;;;;;;;1.40;1.30;;;21.60;55.30;;;;;;5068067;28;20673;-44
2023/05/31 05:18:20;;;;;;;1.40;1.30;;;21.60;55.30;;;;;;5061525;28;20202;-44
2023/05/31 05:20:52;;;;;;;1.30;1.20;;;21.60;55.30;;;;;;5061206;28;20201;-44
2023/05/31 05:23:28;;;;;;;1.30;1.20;;;21.60;55.30;;;;;;5062748;28;20202;-44
2023/05/31 05:25:59;;;;;;;1.50;1.20;;;21.60;55.30;;;;;;5059344;28;20209;-43
2023/05/31 05:28:30;;;;;;;1.40;1.30;;;21.60;55.30;;;;;;5055029;28;20613;-44
2023/05/31 05:30:59;;;;;;;3.10;1.50;;;21.60;55.30;;;;;;5059993;28;20214;-44
2023/05/31 05:33:30;;;;;;;1.60;1.30;;;21.50;55.30;;;;;;5070008;28;20277;-44
2023/05/31 05:36:03;;;;;;;2.93;1.60;;;21.60;55.40;;;;;;5069657;28;20212;-44
2023/05/31 05:38:33;;;;;;;1.67;1.57;;;21.60;55.40;;;;;;5067504;28;20248;-44
2023/05/31 05:41:05;;;;;;;3.23;1.40;;;21.60;55.40;;;;;;5057969;28;20193;-44
2023/05/31 05:43:35;;;;;;;2.70;1.43;;;21.60;55.50;;;;;;5060197;28;20186;-45
2023/05/31 05:46:06;;;;;;;2.80;1.97;;;21.50;55.40;;;;;;5070005;28;20205;-44
2023/05/31 05:48:39;;;;;;;1.80;1.70;;;21.60;55.40;;;;;;5057348;28;20194;-44
2023/05/31 05:51:10;;;;;;;2.50;1.80;;;21.50;55.40;;;;;;5070469;28;20197;-43
2023/05/31 05:53:39;;;;;;;2.30;1.90;;;21.60;55.40;;;;;;5048709;28;20239;-43
2023/05/31 05:56:18;;;;;;;19.10;3.30;;;21.60;55.40;;;;;;5051649;28;20210;-43
2023/05/31 05:58:50;;;;;;;4.83;1.77;;;21.50;55.30;;;;;;5065199;28;20220;-43
2023/05/31 06:01:23;;;;;;;8.97;2.90;;;21.60;55.50;;;;;;5059956;28;20199;-43
2023/05/31 06:04:00;;;;;;;6.47;2.37;;;21.60;55.50;;;;;;5053810;28;20229;-44
2023/05/31 06:06:31;;;;;;;9.17;2.60;;;21.60;55.50;;;;;;5064591;28;20223;-43
2023/05/31 06:09:05;;;;;;;10.70;2.30;;;21.60;55.50;;;;;;5071397;28;20197;-43
2023/05/31 06:11:37;;;;;;;11.23;2.70;;;21.50;55.50;;;;;;5060653;28;20204;-44
2023/05/31 06:14:07;;;;;;;8.93;2.23;;;21.50;55.50;;;;;;5059666;28;20222;-44
2023/05/31 06:16:38;;;;;;;4.97;2.10;;;21.60;55.50;;;;;;5043746;28;20667;-44
2023/05/31 06:19:09;;;;;;;5.07;1.90;;;21.50;55.40;;;;;;5052247;28;20500;-44
2023/05/31 06:21:41;;;;;;;3.70;1.90;;;21.50;55.50;;;;;;5059759;28;20202;-43
2023/05/31 06:24:10;;;;;;;5.40;2.60;;;21.60;55.50;;;;;;5064452;28;20195;-43
2023/05/31 06:26:42;;;;;;;2.10;1.70;;;21.60;55.50;;;;;;5068124;28;20189;-44
2023/05/31 06:29:14;;;;;;;4.67;2.30;;;21.60;55.40;;;;;;5060634;28;20257;-44
2023/05/31 06:31:47;;;;;;;4.47;1.80;;;21.60;55.50;;;;;;5045420;28;20199;-43
2023/05/31 06:34:23;;;;;;;5.80;2.23;;;21.50;56.00;;;;;;5059308;28;20240;-43
2023/05/31 06:36:56;;;;;;;3.60;2.20;;;21.60;55.40;;;;;;5064004;28;20225;-43
2023/05/31 06:39:26;;;;;;;4.13;1.90;;;21.60;55.40;;;;;;5058150;28;20234;-43
2023/05/31 06:42:07;;;;;;;3.57;2.13;;;21.60;55.40;;;;;;5051169;28;20206;-44
2023/05/31 06:44:42;;;;;;;4.03;1.90;;;21.50;55.40;;;;;;5065733;28;20197;-45
2023/05/31 06:47:23;;;;;;;5.03;2.10;;;21.50;55.40;;;;;;5023905;28;20515;-44
2023/05/31 06:49:54;;;;;;;2.10;1.80;;;21.50;55.40;;;;;;5056305;28;20217;-44
2023/05/31 06:52:23;;;;;;;2.97;1.60;;;21.50;55.40;;;;;;5051936;28;20206;-44
2023/05/31 06:54:54;;;;;;;4.43;2.07;;;21.50;55.40;;;;;;5064811;28;20208;-43
2023/05/31 06:57:27;;;;;;;3.20;2.30;;;21.60;55.40;;;;;;5066622;28;20235;-44
2023/05/31 06:59:57;;;;;;;3.27;1.87;;;21.60;55.40;;;;;;5059009;28;20194;-44
2023/05/31 07:02:31;;;;;;;2.80;2.00;;;21.60;55.30;;;;;;5065622;28;20651;-45
2023/05/31 07:05:03;;;;;;;9.37;2.10;;;21.60;55.50;;;;;;5066732;28;20744;-44
2023/05/31 07:07:36;;;;;;;7.33;2.40;;;21.60;55.40;;;;;;5064510;28;20201;-44
2023/05/31 07:10:06;;;;;;;10.97;2.83;;;21.60;55.50;;;;;;5062767;28;20596;-44
2023/05/31 07:12:38;;;;;;;5.03;2.50;;;21.60;55.60;;;;;;5072678;28;20202;-44
2023/05/31 07:15:09;;;;;;;9.73;2.70;;;21.60;55.70;;;;;;5070168;28;20211;-44
2023/05/31 07:17:38;;;;;;;5.97;2.10;;;21.60;55.60;;;;;;5067190;28;20239;-44
2023/05/31 07:20:08;;;;;;;4.30;2.10;;;21.60;55.70;;;;;;5069847;28;20204;-44
2023/05/31 07:22:36;;;;;;;4.47;2.27;;;21.60;55.70;;;;;;5053802;28;20198;-44
2023/05/31 07:25:09;;;;;;;3.90;2.43;;;21.60;55.70;;;;;;5054811;28;20853;-44
2023/05/31 07:27:41;;;;;;;5.73;2.47;;;21.60;55.60;;;;;;5059956;28;20661;-43
2023/05/31 07:30:10;;;;;;;2.87;2.10;;;21.60;55.60;;;;;;5059799;28;20229;-44
2023/05/31 07:32:38;;;;;;;3.10;2.03;;;21.60;55.60;;;;;;5053760;28;20194;-44
2023/05/31 07:35:09;;;;;;;5.07;2.30;;;21.60;55.60;;;;;;5057602;28;20202;-44
2023/05/31 07:37:40;;;;;;;3.33;2.00;;;21.60;55.50;;;;;;5051271;28;20190;-43
2023/05/31 07:40:08;;;;;;;2.87;1.70;;;21.60;55.50;;;;;;5069252;28;20237;-43
2023/05/31 07:42:43;;;;;;;5.07;2.60;;;21.60;55.50;;;;;;5067858;28;20225;-43
2023/05/31 07:45:11;;;;;;;3.77;2.03;;;21.60;55.50;;;;;;5076113;28;20215;-43
2023/05/31 07:47:43;;;;;;;3.47;2.17;;;21.70;55.50;;;;;;5068647;28;20201;-43
2023/05/31 07:50:13;;;;;;;2.87;1.80;;;21.70;55.50;;;;;;5052408;28;20198;-45
2023/05/31 07:52:49;;;;;;;3.33;2.00;;;21.60;55.40;;;;;;5059700;28;20705;-44
2023/05/31 07:55:26;;;;;;;4.07;2.47;;;21.60;55.40;;;;;;5047474;28;20210;-44
2023/05/31 07:57:57;;;;;;;3.70;2.30;;;21.70;55.50;;;;;;5063765;28;20182;-44
2023/05/31 08:00:31;;;;;;;2.23;2.03;;;21.70;55.50;;;;;;5060397;28;20194;-44
2023/05/31 08:03:05;;;;;;;3.00;2.00;;;21.70;55.40;;;;;;5052596;28;20637;-44
2023/05/31 08:05:36;;;;;;;3.83;1.90;;;21.70;55.50;;;;;;5065443;28;20828;-43
2023/05/31 08:08:06;;;;;;;2.67;2.07;;;21.70;55.40;;;;;;5071250;28;20732;-43
2023/05/31 08:10:38;;;;;;;3.13;2.30;;;21.70;55.40;;;;;;5070601;28;20194;-44
2023/05/31 08:13:10;;;;;;;3.67;2.07;;;21.70;55.40;;;;;;5055582;28;20547;-43
2023/05/31 08:15:39;;;;;;;2.67;2.27;;;21.70;55.40;;;;;;5047719;28;20202;-43
2023/05/31 08:18:08;;;;;;;4.80;1.80;;;21.70;55.50;;;;;;5060244;28;20228;-43
2023/05/31 08:20:37;;;;;;;5.03;2.40;;;21.70;55.50;;;;;;5046147;28;20210;-44
2023/05/31 08:23:08;;;;;;;4.17;2.53;;;21.80;55.50;;;;;;5058427;28;20210;-44
2023/05/31 08:25:41;;;;;;;3.27;2.60;;;21.80;55.40;;;;;;5061909;28;20233;-43
2023/05/31 08:28:12;;;;;;;5.03;2.77;;;21.80;55.40;;;;;;5070589;28;20181;-43
2023/05/31 08:30:40;;;;;;;4.00;2.87;;;21.80;55.40;;;;;;5058111;28;20214;-43
2023/05/31 08:33:12;;;;;;;3.43;2.37;;;21.80;55.40;;;;;;5055744;28;20216;-43
2023/05/31 08:35:43;;;;;;;3.43;2.30;;;21.80;55.40;;;;;;5065506;28;20207;-43
2023/05/31 08:38:14;;;;;;;5.57;2.77;;;21.80;55.50;;;;;;5068227;28;20200;-43
2023/05/31 08:40:43;;;;;;;5.33;2.50;;;21.80;55.50;;;;;;5070233;28;20198;-44
2023/05/31 08:43:27;;;;;;;5.97;2.27;;;21.90;55.60;;;;;;5058922;28;20217;-44
2023/05/31 08:45:59;;;;;;;3.10;2.30;;;21.80;55.60;;;;;;5053658;28;20203;-43
2023/05/31 08:48:42;;;;;;;5.03;2.50;;;21.90;55.80;;;;;;5070829;28;20440;-43
2023/05/31 08:51:14;;;;;;;4.90;2.60;;;21.90;55.70;;;;;;5040488;28;20236;-43
2023/05/31 08:53:47;;;;;;;3.30;2.00;;;21.90;55.80;;;;;;5050906;28;20520;-44
2023/05/31 08:56:18;;;;;;;5.77;2.80;;;21.90;55.80;;;;;;5039654;28;20218;-44
2023/05/31 08:58:50;;;;;;;4.03;2.77;;;21.90;55.80;;;;;;5043740;28;20251;-44
2023/05/31 09:01:23;;;;;;;7.33;2.73;;;21.90;55.70;;;;;;5038981;28;20708;-44
2023/05/31 09:03:57;;;;;;;4.07;2.53;;;21.90;55.70;;;;;;5034515;28;20192;-44
2023/05/31 09:06:29;;;;;;;4.53;2.33;;;21.90;56.40;;;;;;5028218;28;20190;-44
2023/05/31 09:09:02;;;;;;;6.20;2.60;;;21.90;55.70;;;;;;5066961;28;20204;-44
2023/05/31 09:11:37;;;;;;;4.77;2.40;;;21.90;55.60;;;;;;5046301;28;20214;-43
2023/05/31 09:14:08;;;;;;;3.53;2.40;;;21.90;55.70;;;;;;5062188;28;20210;-43
2023/05/31 09:16:43;;;;;;;4.67;2.70;;;21.90;55.80;;;;;;5032792;28;20186;-45
2023/05/31 09:19:13;;;;;;;3.73;2.60;;;22.00;55.80;;;;;;5048523;28;20218;-45
2023/05/31 09:21:47;;;;;;;4.53;2.70;;;21.90;55.70;;;;;;5070745;28;20197;-44
2023/05/31 09:24:22;;;;;;;4.43;2.10;;;22.00;55.80;;;;;;5054723;28;20190;-44
2023/05/31 09:26:53;;;;;;;5.13;2.87;;;22.00;55.90;;;;;;5067224;28;20217;-44
2023/05/31 09:29:25;;;;;;;4.13;2.47;;;22.00;55.80;;;;;;5060598;28;20189;-44
2023/05/31 09:32:20;;;;;;;3.60;2.63;;;22.00;55.90;;;;;;5041614;28;20209;-43
2023/05/31 09:35:12;;;;;;;3.33;2.60;;;22.00;55.70;;;;;;5065261;28;20213;-44
2023/05/31 09:37:48;;;;;;;2.93;2.20;;;22.00;55.60;;;;;;5064248;28;20199;-44
2023/05/31 09:40:24;;;;;;;2.93;2.17;;;22.10;55.70;;;;;;5040787;28;20241;-44
2023/05/31 09:43:03;;;;;;;4.10;2.47;;;22.10;55.70;;;;;;5025155;28;20530;-44
2023/05/31 09:45:47;;;;;;;4.43;2.53;;;22.10;55.80;;;;;;5028340;28;20225;-45
2023/05/31 09:48:24;;;;;;;5.67;2.40;;;22.10;56.30;;;;;;5011640;28;20207;-44
2023/05/31 09:50:55;;;;;;;3.97;2.90;;;22.10;55.80;;;;;;5029901;28;20650;-44
2023/05/31 09:53:25;;;;;;;5.30;2.90;;;22.10;55.80;;;;;;5022589;28;20199;-44
2023/05/31 09:55:57;;;;;;;4.23;2.60;;;22.10;55.70;;;;;;5046524;28;20210;-43
2023/05/31 09:58:31;;;;;;;5.97;2.80;;;22.10;55.70;;;;;;5030089;28;20253;-44
2023/05/31 10:01:09;;;;;;;4.20;2.43;;;22.20;56.10;;;;;;5053072;28;20198;-44
2023/05/31 10:03:47;;;;;;;5.23;2.90;;;22.20;56.20;;;;;;5031956;28;20206;-44
2023/05/31 10:06:21;;;;;;;3.57;2.70;;;22.20;55.90;;;;;;5026511;28;20714;-44
2023/05/31 10:08:53;;;;;;;3.83;2.50;;;22.20;55.60;;;;;;5033128;28;20209;-44
2023/05/31 10:11:41;;;;;;;3.53;2.70;;;22.20;56.00;;;;;;5050354;28;20205;-44
2023/05/31 10:14:25;;;;;;;4.20;2.80;;;22.20;55.20;;;;;;5051823;28;20655;-44
2023/05/31 10:17:14;;;;;;;3.50;2.30;;;22.30;55.40;;;;;;5052251;28;20194;-45
2023/05/31 10:20:00;;;;;;;5.70;2.60;;;22.30;56.00;;;;;;5045773;28;20695;-45
2023/05/31 10:22:41;;;;;;;3.40;2.20;;;22.30;55.60;;;;;;5045247;28;20194;-44
2023/05/31 10:25:28;;;;;;;4.63;2.37;;;22.30;55.40;;;;;;5045122;28;20229;-44
2023/05/31 10:28:06;;;;;;;5.50;2.40;;;22.30;55.50;;;;;;5031974;28;20190;-44
2023/05/31 10:30:41;;;;;;;5.37;2.60;;;22.30;55.60;;;;;;5028345;28;20210;-44
2023/05/31 10:33:13;;;;;;;3.53;2.30;;;22.40;55.10;;;;;;5017870;28;20252;-44
2023/05/31 10:35:45;;;;;;;5.43;2.73;;;22.40;54.90;;;;;;5032012;28;20202;-44
2023/05/31 10:38:35;;;;;;;6.60;3.23;;;22.40;55.50;;;;;;5015467;28;20206;-44
2023/05/31 10:41:15;;;;;;;4.47;2.70;;;22.40;56.10;;;;;;5069457;28;20193;-44
2023/05/31 10:44:12;;;;;;;4.50;2.50;;;22.40;54.90;;;;;;5066614;28;20247;-44
2023/05/31 10:46:50;;;;;;;4.10;2.50;;;22.50;54.60;;;;;;5066881;28;20619;-44
2023/05/31 10:49:23;;;;;;;2.83;2.23;;;22.50;55.30;;;;;;5088531;28;20191;-44
2023/05/31 10:51:53;;;;;;;5.13;2.60;;;22.50;54.70;;;;;;5060598;28;20624;-44
2023/05/31 10:54:28;;;;;;;5.67;2.63;;;22.50;54.40;;;;;;5063434;28;20286;-44
2023/05/31 10:57:03;;;;;;;4.13;2.30;;;22.50;55.40;;;;;;5051653;28;20611;-44
2023/05/31 10:59:50;;;;;;;2.70;2.50;;;22.50;54.90;;;;;;5069255;28;20534;-43
2023/05/31 11:02:24;;;;;;;3.63;2.23;;;22.50;54.80;;;;;;5052406;28;20243;-43
2023/05/31 11:04:54;;;;;;;4.33;2.40;;;22.60;54.40;;;;;;5066310;28;20629;-44
2023/05/31 11:07:25;;;;;;;3.37;2.43;;;22.60;54.60;;;;;;5071097;28;20257;-44
2023/05/31 11:09:56;;;;;;;7.17;2.67;;;22.60;54.30;;;;;;5048383;28;20209;-44
2023/05/31 11:12:35;;;;;;;6.70;2.83;;;22.60;55.30;;;;;;5025945;28;20216;-44
2023/05/31 11:15:11;;;;;;;4.17;2.47;;;22.60;54.90;;;;;;5078676;28;20217;-44
2023/05/31 11:17:55;;;;;;;5.93;2.53;;;22.70;54.40;;;;;;5062419;28;20314;-44
2023/05/31 11:20:33;;;;;;;6.57;2.57;;;22.70;54.30;;;;;;5038393;28;20202;-45
2023/05/31 11:23:27;;;;;;;3.80;2.60;;;22.70;54.70;;;;;;5085012;28;20186;-46
2023/05/31 11:26:20;;;;;;;3.07;2.43;;;22.70;54.40;;;;;;5071533;28;20197;-45
2023/05/31 11:29:03;;;;;;;4.97;2.50;;;22.70;54.30;;;;;;5062643;28;20260;-44
2023/05/31 11:31:59;;;;;;;3.73;2.60;;;22.70;54.60;;;;;;5048190;28;20216;-44
2023/05/31 11:34:34;;;;;;;5.13;2.70;;;22.80;54.60;;;;;;5053238;28;20238;-44
2023/05/31 11:37:05;;;;;;;2.60;2.40;;;22.70;54.30;;;;;;5035465;28;20262;-43
2023/05/31 11:39:44;;;;;;;5.50;2.60;;;22.80;54.50;;;;;;5065399;28;20233;-43
2023/05/31 11:42:16;;;;;;;5.17;2.60;;;22.80;54.70;;;;;;5048383;28;20227;-43
2023/05/31 11:44:52;;;;;;;3.60;2.50;;;22.80;54.70;;;;;;5053210;28;20251;-44
2023/05/31 11:47:26;;;;;;;2.30;2.10;;;22.80;54.70;;;;;;5053779;28;20209;-43
2023/05/31 11:49:58;;;;;;;4.23;2.30;;;22.90;54.80;;;;;;5072656;28;20206;-44
2023/05/31 11:52:28;;;;;;;3.33;2.30;;;22.80;54.80;;;;;;5049277;28;20209;-44
2023/05/31 11:55:05;;;;;;;3.97;2.53;;;22.90;54.80;;;;;;5033370;28;20776;-43
2023/05/31 11:57:45;;;;;;;3.47;2.40;;;22.90;54.50;;;;;;5066009;28;20228;-44
2023/05/31 12:00:21;;;;;;;3.57;2.20;;;22.90;54.80;;;;;;5045780;28;20206;-44
2023/05/31 12:03:04;;;;;;;4.67;2.20;;;23.00;54.80;;;;;;5067264;28;20194;-44
2023/05/31 12:06:00;;;;;;;2.70;2.00;;;22.90;54.60;;;;;;5058573;28;20197;-45
2023/05/31 12:08:31;;;;;;;5.87;2.17;;;23.00;54.30;;;;;;5053882;28;20217;-44
2023/05/31 12:11:04;;;;;;;3.73;2.43;;;23.00;55.20;;;;;;5061913;28;20205;-45
2023/05/31 12:13:36;;;;;;;3.07;2.20;;;23.00;54.80;;;;;;5056513;28;20201;-45
2023/05/31 12:16:06;;;;;;;4.53;2.13;;;23.10;54.40;;;;;;5061997;28;20624;-45
2023/05/31 12:18:36;;;;;;;4.23;2.53;;;23.10;54.90;;;;;;5047896;28;20214;-45
2023/05/31 12:21:11;;;;;;;4.00;2.20;;;23.10;54.70;;;;;;5056607;28;20201;-44
2023/05/31 12:23:55;;;;;;;3.60;2.17;;;23.10;54.80;;;;;;5051634;28;20612;-44
2023/05/31 12:26:44;;;;;;;4.07;2.20;;;23.10;54.70;;;;;;5021237;28;20195;-44
2023/05/31 12:29:18;;;;;;;4.47;2.10;;;23.10;55.00;;;;;;5065542;28;20521;-44
2023/05/31 12:32:19;;;;;;;2.90;2.10;;;23.10;54.30;;;;;;5067254;28;20206;-44
2023/05/31 12:34:51;;;;;;;4.33;2.60;;;23.20;54.40;;;;;;5070440;28;20219;-44
2023/05/31 12:37:22;;;;;;;2.20;2.00;;;23.20;54.70;;;;;;5071476;28;20198;-44
2023/05/31 12:40:09;;;;;;;4.57;2.50;;;23.20;54.60;;;;;;5071996;28;20256;-44
2023/05/31 12:42:46;;;;;;;3.27;1.97;;;23.20;55.00;;;;;;5052808;28;20573;-44
2023/05/31 12:45:19;;;;;;;3.67;2.30;;;23.30;54.60;;;;;;5055352;28;20197;-44
2023/05/31 12:47:57;;;;;;;2.97;1.87;;;23.30;54.20;;;;;;5056336;28;20192;-44
2023/05/31 12:50:29;;;;;;;4.13;1.90;;;23.30;54.30;;;;;;5051527;28;20203;-44
2023/05/31 12:53:01;;;;;;;5.13;2.57;;;23.40;54.50;;;;;;5071192;28;20201;-44
2023/05/31 12:55:31;;;;;;;3.20;2.23;;;23.30;54.40;;;;;;5068266;28;20245;-44
2023/05/31 12:58:05;;;;;;;5.43;2.70;;;23.30;54.10;;;;;;5070782;28;20248;-44
2023/05/31 13:00:36;;;;;;;3.53;2.27;;;23.40;54.00;;;;;;5067967;28;20221;-44
2023/05/31 13:03:13;;;;;;;5.23;2.23;;;23.40;54.10;;;;;;5064814;28;20674;-44
2023/05/31 13:05:46;;;;;;;4.77;1.93;;;23.50;54.10;;;;;;5083225;28;20178;-44
2023/05/31 13:08:16;;;;;;;3.20;2.40;;;23.50;54.20;;;;;;5063977;28;20202;-45
2023/05/31 13:10:44;;;;;;;2.90;2.10;;;23.50;54.30;;;;;;5072419;28;20182;-44
2023/05/31 13:13:14;;;;;;;3.60;2.30;;;23.50;54.50;;;;;;5076232;28;20650;-44
2023/05/31 13:15:46;;;;;;;2.60;2.30;;;23.50;54.70;;;;;;5084012;28;20232;-44
2023/05/31 13:18:15;;;;;;;4.87;2.30;;;23.50;54.70;;;;;;5046953;28;20198;-44
2023/05/31 13:20:47;;;;;;;3.50;2.30;;;23.60;54.60;;;;;;5081855;28;20521;-44